createdAt,value
2022-10-14T00:01:02.907Z,90
2022-10-14T00:03:01.363Z,90
2022-10-14T00:05:02.374Z,90
2022-10-14T00:07:03.167Z,91
2022-10-14T00:10:59.516Z,90
2022-10-14T00:12:59.051Z,90
2022-10-14T00:15:01.502Z,90
2022-10-14T00:16:58.197Z,90
2022-10-14T00:19:03.167Z,90
2022-10-14T00:21:02.481Z,90
2022-10-14T00:23:01.038Z,90
2022-10-14T00:25:02.916Z,90
2022-10-14T00:26:59.349Z,90
2022-10-14T00:29:02.851Z,90
2022-10-14T00:31:01.305Z,90
2022-10-14T00:33:00.853Z,90
2022-10-14T00:34:59.525Z,90
2022-10-14T00:37:02.182Z,90
2022-10-14T00:39:03.008Z,90
2022-10-14T00:41:01.761Z,90
2022-10-14T00:42:59.920Z,90
2022-10-14T00:44:59.568Z,90
2022-10-14T00:47:01.384Z,90
2022-10-14T00:48:57.404Z,90
2022-10-14T00:50:59.471Z,90
2022-10-14T00:53:00.323Z,90
2022-10-14T00:54:59.501Z,90
2022-10-14T00:57:02.852Z,90
2022-10-14T00:59:00.553Z,90
2022-10-14T01:01:03.106Z,90
2022-10-14T01:03:00.685Z,90
2022-10-14T01:05:02.766Z,90
2022-10-14T01:07:00.953Z,90
2022-10-14T01:11:06.012Z,90
2022-10-14T01:13:01.576Z,90
2022-10-14T01:14:59.751Z,90
2022-10-14T01:17:02.861Z,90
2022-10-14T01:19:02.718Z,90
2022-10-14T01:20:59.656Z,90
2022-10-14T01:23:02.839Z,90
2022-10-14T01:25:02.770Z,90
2022-10-14T01:27:05.890Z,90
2022-10-14T01:29:03.029Z,90
2022-10-14T01:30:59.642Z,90
2022-10-14T01:35:01.963Z,89
2022-10-14T01:36:59.591Z,89
2022-10-14T01:39:01.824Z,89
2022-10-14T01:41:06.055Z,89
2022-10-14T01:43:01.751Z,89
2022-10-14T01:45:01.051Z,89
2022-10-14T01:46:59.118Z,89
2022-10-14T01:49:01.633Z,89
2022-10-14T01:51:01.759Z,89
2022-10-14T01:53:01.334Z,89
2022-10-14T01:55:02.974Z,89
2022-10-14T01:58:59.624Z,89
2022-10-14T02:01:00.489Z,89
2022-10-14T02:05:01.621Z,89
2022-10-14T02:07:00.488Z,89
2022-10-14T02:09:02.810Z,89
2022-10-14T02:11:02.508Z,89
2022-10-14T02:12:59.634Z,89
2022-10-14T02:15:00.640Z,89
2022-10-14T02:17:02.974Z,89
2022-10-14T02:18:59.566Z,89
2022-10-14T02:20:58.091Z,90
2022-10-14T02:22:59.869Z,90
2022-10-14T02:24:59.865Z,90
2022-10-14T02:27:01.004Z,90
2022-10-14T02:28:59.662Z,90
2022-10-14T02:31:01.878Z,90
2022-10-14T02:33:02.782Z,90
2022-10-14T02:35:02.833Z,90
2022-10-14T02:37:01.290Z,90
2022-10-14T02:38:59.569Z,90
2022-10-14T02:40:59.847Z,90
2022-10-14T02:43:01.427Z,90
2022-10-14T02:44:59.634Z,90
2022-10-14T02:47:01.880Z,90
2022-10-14T02:49:02.824Z,90
2022-10-14T02:53:04.455Z,90
2022-10-14T02:54:59.654Z,90
2022-10-14T02:56:59.439Z,90
2022-10-14T02:59:06.188Z,90
2022-10-14T03:01:02.884Z,90
2022-10-14T03:02:59.657Z,90
2022-10-14T03:05:00.584Z,90
2022-10-14T03:06:59.764Z,90
2022-10-14T03:10:59.622Z,90
2022-10-14T03:12:59.916Z,90
2022-10-14T03:14:59.648Z,90
2022-10-14T03:16:59.977Z,90
2022-10-14T03:19:00.513Z,90
2022-10-14T03:21:02.500Z,90
2022-10-14T03:22:59.693Z,90
2022-10-14T03:24:59.082Z,90
2022-10-14T03:27:02.237Z,90
2022-10-14T03:28:59.811Z,90
2022-10-14T03:30:59.505Z,90
2022-10-14T03:33:00.945Z,90
2022-10-14T03:35:01.352Z,90
2022-10-14T03:36:59.210Z,90
2022-10-14T03:39:00.099Z,90
2022-10-14T03:41:01.945Z,90
2022-10-14T03:43:00.762Z,90
2022-10-14T03:45:01.242Z,90
2022-10-14T03:47:02.002Z,90
2022-10-14T03:48:59.923Z,90
2022-10-14T03:51:00.807Z,90
2022-10-14T03:52:59.637Z,91
2022-10-14T03:55:01.389Z,91
2022-10-14T03:57:01.242Z,91
2022-10-14T03:59:01.912Z,91
2022-10-14T04:01:01.169Z,91
2022-10-14T04:02:59.982Z,91
2022-10-14T04:05:01.397Z,91
2022-10-14T04:07:02.862Z,91
2022-10-14T04:09:02.219Z,91
2022-10-14T04:10:59.843Z,91
2022-10-14T04:13:01.869Z,91
2022-10-14T04:15:01.764Z,91
2022-10-14T04:17:02.554Z,91
2022-10-14T04:19:01.998Z,91
2022-10-14T04:21:01.613Z,91
2022-10-14T04:23:00.619Z,91
2022-10-14T04:29:01.595Z,91
2022-10-14T04:31:02.581Z,91
2022-10-14T04:33:01.242Z,91
2022-10-14T04:35:02.827Z,91
2022-10-14T04:37:01.647Z,91
2022-10-14T04:39:01.629Z,91
2022-10-14T04:41:01.035Z,91
2022-10-14T04:42:59.508Z,91
2022-10-14T04:45:01.819Z,91
2022-10-14T04:46:59.680Z,91
2022-10-14T04:49:01.740Z,91
2022-10-14T04:51:02.289Z,91
2022-10-14T04:53:01.654Z,91
2022-10-14T04:55:00.052Z,91
2022-10-14T04:57:01.827Z,91
2022-10-14T05:00:59.606Z,91
2022-10-14T05:03:00.633Z,91
2022-10-14T05:05:03.113Z,91
2022-10-14T05:07:01.672Z,91
2022-10-14T05:09:00.505Z,91
2022-10-14T05:11:01.668Z,91
2022-10-14T05:13:01.977Z,91
2022-10-14T05:14:59.553Z,91
2022-10-14T05:17:02.936Z,91
2022-10-14T05:19:01.599Z,91
2022-10-14T05:23:01.962Z,91
2022-10-14T05:25:00.042Z,91
2022-10-14T05:27:02.255Z,91
2022-10-14T05:28:59.653Z,91
2022-10-14T05:33:01.332Z,91
2022-10-14T05:35:00.343Z,91
2022-10-14T05:37:01.397Z,91
2022-10-14T05:38:59.829Z,91
2022-10-14T05:41:02.647Z,91
2022-10-14T05:44:59.661Z,91
2022-10-14T05:47:02.325Z,91
2022-10-14T05:48:59.325Z,91
2022-10-14T05:51:01.413Z,91
2022-10-14T05:53:01.277Z,91
2022-10-14T05:54:59.640Z,91
2022-10-14T05:57:00.815Z,91
2022-10-14T05:59:01.423Z,91
2022-10-14T06:00:59.651Z,91
2022-10-14T06:02:59.683Z,91
2022-10-14T06:05:02.063Z,91
2022-10-14T06:07:05.922Z,91
2022-10-14T06:09:04.712Z,91
2022-10-14T06:11:02.899Z,91
2022-10-14T06:13:02.844Z,91
2022-10-14T06:15:00.105Z,91
2022-10-14T06:17:02.892Z,90
2022-10-14T06:21:00.117Z,90
2022-10-14T06:23:02.299Z,90
2022-10-14T06:25:06.889Z,90
2022-10-14T06:27:03.037Z,90
2022-10-14T06:28:59.680Z,90
2022-10-14T06:31:01.983Z,90
2022-10-14T06:33:02.864Z,90
2022-10-14T06:37:02.176Z,90
2022-10-14T06:39:01.833Z,90
2022-10-14T06:41:01.006Z,89
2022-10-14T06:42:59.697Z,90
2022-10-14T06:45:01.829Z,89
2022-10-14T06:46:57.830Z,89
2022-10-14T06:49:02.967Z,89
2022-10-14T06:50:59.677Z,89
2022-10-14T06:55:02.899Z,89
2022-10-14T06:57:02.155Z,89
2022-10-14T06:59:02.822Z,89
2022-10-14T07:00:59.867Z,88
2022-10-14T07:03:02.767Z,88
2022-10-14T07:07:02.841Z,88
2022-10-14T07:09:02.547Z,87
2022-10-14T07:11:01.692Z,87
2022-10-14T07:12:59.902Z,86
2022-10-14T07:15:02.774Z,87
2022-10-14T07:17:01.428Z,86
2022-10-14T07:19:03.328Z,86
2022-10-14T07:21:00.069Z,86
2022-10-14T07:22:59.837Z,85
2022-10-14T07:24:59.698Z,85
2022-10-14T07:27:01.087Z,86
2022-10-14T07:29:01.879Z,86
2022-10-14T07:31:02.188Z,86
2022-10-14T07:33:03.284Z,86
2022-10-14T07:35:02.867Z,86
2022-10-14T07:37:01.343Z,86
2022-10-14T07:39:02.562Z,85
2022-10-14T07:41:01.818Z,85
2022-10-14T07:43:00.837Z,85
2022-10-14T07:44:59.780Z,85
2022-10-14T07:47:02.899Z,85
2022-10-14T07:49:01.473Z,85
2022-10-14T07:50:59.714Z,85
2022-10-14T07:53:01.486Z,85
2022-10-14T07:55:02.272Z,85
2022-10-14T07:57:02.390Z,85
2022-10-14T07:59:01.399Z,85
2022-10-14T08:01:01.421Z,84
2022-10-14T08:03:02.917Z,84
2022-10-14T08:05:13.406Z,84
2022-10-14T08:07:03.078Z,84
2022-10-14T08:09:00.125Z,84
2022-10-14T08:11:01.477Z,84
2022-10-14T08:13:01.780Z,84
2022-10-14T08:14:59.704Z,84
2022-10-14T08:17:02.090Z,83
2022-10-14T08:19:09.710Z,83
2022-10-14T08:21:02.943Z,83
2022-10-14T08:22:59.746Z,83
2022-10-14T08:25:00.407Z,82
2022-10-14T08:27:01.465Z,82
2022-10-14T08:29:01.451Z,82
2022-10-14T08:31:01.521Z,82
2022-10-14T08:34:04.723Z,82
2022-10-14T08:39:03.032Z,82
2022-10-14T08:43:43.371Z,81
2022-10-14T08:45:45.451Z,81
2022-10-14T08:47:47.047Z,80
2022-10-14T08:49:42.081Z,81
2022-10-14T08:51:42.301Z,81
2022-10-14T08:55:45.825Z,80
2022-10-14T08:57:43.281Z,81
2022-10-14T08:59:48.629Z,80
2022-10-14T09:01:49.079Z,79
2022-10-14T09:03:44.440Z,80
2022-10-14T09:05:45.399Z,79
2022-10-14T09:09:44.735Z,79
2022-10-14T09:11:45.123Z,78
2022-10-14T09:13:42.268Z,77
2022-10-14T09:15:44.794Z,78
2022-10-14T09:19:45.381Z,78
2022-10-14T09:21:52.459Z,78
2022-10-14T09:23:43.003Z,78
2022-10-14T09:25:43.898Z,78
2022-10-14T09:27:42.453Z,78
2022-10-14T09:29:45.629Z,79
2022-10-14T09:31:42.357Z,78
2022-10-14T09:33:42.471Z,78
2022-10-14T09:35:45.543Z,78
2022-10-14T09:37:43.343Z,78
2022-10-14T09:39:42.891Z,77
2022-10-14T09:41:45.587Z,78
2022-10-14T09:43:45.425Z,77
2022-10-14T09:45:48.561Z,77
2022-10-14T09:47:44.997Z,77
2022-10-14T09:49:42.087Z,78
2022-10-14T09:51:45.595Z,77
2022-10-14T09:55:42.362Z,77
2022-10-14T09:57:42.955Z,77
2022-10-14T09:59:43.968Z,77
2022-10-14T10:01:42.113Z,77
2022-10-14T10:03:45.710Z,77
2022-10-14T10:05:42.470Z,77
2022-10-14T10:07:42.071Z,77
2022-10-14T10:09:45.274Z,78
2022-10-14T10:11:44.430Z,77
2022-10-14T10:13:40.809Z,75
2022-10-14T10:15:43.885Z,78
2022-10-14T10:17:42.417Z,75
2022-10-14T10:19:42.377Z,76
2022-10-14T10:21:43.073Z,75
2022-10-14T10:23:41.317Z,75
2022-10-14T10:25:42.367Z,76
2022-10-14T10:27:42.392Z,75
2022-10-14T10:29:43.500Z,76
2022-10-14T10:31:45.505Z,75
2022-10-14T10:33:45.249Z,76
2022-10-14T10:35:43.836Z,74
2022-10-14T10:37:42.178Z,74
2022-10-14T10:39:42.343Z,74
2022-10-14T10:41:44.744Z,76
2022-10-14T10:43:40.887Z,75
2022-10-14T10:45:44.830Z,76
2022-10-14T10:47:44.229Z,75
2022-10-14T10:49:45.323Z,74
2022-10-14T10:51:42.349Z,74
2022-10-14T10:53:45.469Z,74
2022-10-14T10:55:43.008Z,74
2022-10-14T10:57:42.461Z,73
2022-10-14T10:59:45.170Z,73
2022-10-14T11:01:45.182Z,74
2022-10-14T11:03:42.985Z,75
2022-10-14T11:05:43.420Z,74
2022-10-14T11:07:43.496Z,74
2022-10-14T11:09:43.387Z,76
2022-10-14T11:11:44.390Z,76
2022-10-14T11:13:45.818Z,77
2022-10-14T11:15:45.241Z,75
2022-10-14T11:17:43.993Z,74
2022-10-14T11:19:42.384Z,73
2022-10-14T11:21:44.927Z,73
2022-10-14T11:23:45.444Z,75
2022-10-14T11:25:43.936Z,75
2022-10-14T11:27:45.730Z,74
2022-10-14T11:29:45.815Z,73
2022-10-14T11:31:45.505Z,74
2022-10-14T11:33:43.923Z,74
2022-10-14T11:35:45.440Z,77
2022-10-14T11:37:43.891Z,74
2022-10-14T11:39:42.361Z,73
2022-10-14T11:43:43.921Z,74
2022-10-14T11:45:45.028Z,74
2022-10-14T11:49:42.482Z,74
2022-10-14T11:51:45.951Z,73
2022-10-14T11:53:42.300Z,72
2022-10-14T11:55:44.385Z,72
2022-10-14T11:57:43.090Z,72
2022-10-14T11:59:45.710Z,72
2022-10-14T12:01:44.048Z,72
2022-10-14T12:03:45.501Z,72
2022-10-14T12:05:45.460Z,73
2022-10-14T12:07:44.049Z,73
2022-10-14T12:09:42.364Z,73
2022-10-14T12:11:42.481Z,73
2022-10-14T12:13:45.555Z,73
2022-10-14T12:15:44.824Z,72
2022-10-14T12:17:42.521Z,71
2022-10-14T12:19:43.144Z,71
2022-10-14T12:21:46.818Z,71
2022-10-14T12:23:43.932Z,72
2022-10-14T12:25:42.915Z,73
2022-10-14T12:27:44.374Z,73
2022-10-14T12:29:43.961Z,73
2022-10-14T12:31:42.350Z,73
2022-10-14T12:33:45.165Z,73
2022-10-14T12:35:44.826Z,73
2022-10-14T12:37:44.317Z,72
2022-10-14T12:39:44.093Z,75
2022-10-14T12:41:42.471Z,73
2022-10-14T12:43:51.559Z,72
2022-10-14T12:47:42.965Z,72
2022-10-14T12:49:45.272Z,71
2022-10-14T12:51:45.541Z,72
2022-10-14T12:53:42.438Z,73
2022-10-14T12:55:42.371Z,73
2022-10-14T12:57:42.619Z,73
2022-10-14T12:59:43.573Z,73
2022-10-14T13:01:47.369Z,73
2022-10-14T13:03:42.491Z,73
2022-10-14T13:05:42.535Z,72
2022-10-14T13:07:44.869Z,73
2022-10-14T13:09:42.486Z,73
2022-10-14T13:11:42.427Z,73
2022-10-14T13:13:44.902Z,73
2022-10-14T13:15:49.047Z,74
2022-10-14T13:17:43.125Z,74
2022-10-14T13:19:44.728Z,73
2022-10-14T13:23:43.991Z,74
2022-10-14T13:25:45.542Z,75
2022-10-14T13:27:45.065Z,75
2022-10-14T13:29:43.570Z,75
2022-10-14T13:31:44.432Z,75
2022-10-14T13:33:43.549Z,76
2022-10-14T13:35:44.259Z,74
2022-10-14T13:37:46.078Z,75
2022-10-14T13:39:42.271Z,75
2022-10-14T13:41:43.134Z,77
2022-10-14T13:45:42.468Z,75
2022-10-14T13:47:42.491Z,76
2022-10-14T13:51:48.246Z,77
2022-10-14T13:53:43.991Z,76
2022-10-14T13:55:44.154Z,76
2022-10-14T13:58:07.786Z,75
2022-10-14T13:59:44.510Z,76
2022-10-14T14:01:43.956Z,77
2022-10-14T14:03:44.788Z,77
2022-10-14T14:05:42.389Z,76
2022-10-14T14:08:22.002Z,77
2022-10-14T14:09:45.644Z,77
2022-10-14T14:11:43.507Z,76
2022-10-14T14:13:48.217Z,75
2022-10-14T14:15:45.527Z,75
2022-10-14T14:17:45.711Z,77
2022-10-14T14:19:42.348Z,78
2022-10-14T14:21:45.502Z,77
2022-10-14T14:23:42.491Z,75
2022-10-14T14:26:07.364Z,75
2022-10-14T14:27:44.566Z,75
2022-10-14T14:29:42.482Z,75
2022-10-14T14:32:06.997Z,75
2022-10-14T14:33:42.656Z,76
2022-10-14T14:35:45.025Z,77
2022-10-14T14:37:54.937Z,78
2022-10-14T14:39:43.511Z,79
2022-10-14T14:41:43.921Z,79
2022-10-14T14:43:47.249Z,80
2022-10-14T14:45:42.389Z,80
2022-10-14T14:47:43.200Z,80
2022-10-14T14:49:43.515Z,80
2022-10-14T14:51:41.770Z,80
2022-10-14T14:53:42.460Z,81
2022-10-14T14:55:45.653Z,81
2022-10-14T14:57:42.615Z,81
2022-10-14T14:59:42.386Z,81
2022-10-14T15:01:44.981Z,81
2022-10-14T15:04:11.689Z,81
2022-10-14T15:05:43.434Z,81
2022-10-14T15:07:44.414Z,81
2022-10-14T15:10:50.900Z,82
2022-10-14T15:12:48.317Z,82
2022-10-14T15:14:48.710Z,82
2022-10-14T15:18:48.617Z,82
2022-10-14T15:20:49.748Z,83
2022-10-14T15:22:50.671Z,83
2022-10-14T15:24:47.379Z,83
2022-10-14T15:26:50.594Z,83
2022-10-14T15:28:50.433Z,83
2022-10-14T15:30:49.594Z,83
2022-10-14T15:32:48.860Z,83
2022-10-14T15:34:51.432Z,83
2022-10-14T15:36:46.949Z,83
2022-10-14T15:38:49.732Z,84
2022-10-14T15:42:55.067Z,83
2022-10-14T15:44:50.309Z,83
2022-10-14T15:46:50.712Z,83
2022-10-14T15:48:48.296Z,84
2022-10-14T15:50:50.731Z,84
2022-10-14T15:52:50.638Z,84
2022-10-14T15:54:48.165Z,84
2022-10-14T15:56:48.358Z,84
2022-10-14T15:58:50.494Z,84
2022-10-14T16:00:47.354Z,84
2022-10-14T16:02:50.281Z,84
2022-10-14T16:05:14.986Z,84
2022-10-14T16:06:53.726Z,84
2022-10-14T16:08:50.096Z,85
2022-10-14T16:10:49.862Z,85
2022-10-14T16:12:48.188Z,85
2022-10-14T16:14:47.747Z,84
2022-10-14T16:16:49.934Z,84
2022-10-14T16:18:48.345Z,85
2022-10-14T16:20:50.101Z,85
2022-10-14T16:22:49.824Z,85
2022-10-14T16:24:53.914Z,85
2022-10-14T16:26:54.318Z,85
2022-10-14T16:28:50.481Z,85
2022-10-14T16:30:49.221Z,85
2022-10-14T16:32:50.980Z,85
2022-10-14T16:36:50.619Z,85
2022-10-14T16:38:53.084Z,85
2022-10-14T16:40:48.241Z,85
2022-10-14T16:42:49.731Z,85
2022-10-14T16:44:49.163Z,85
2022-10-14T16:46:50.088Z,85
2022-10-14T16:48:48.275Z,85
2022-10-14T16:50:49.307Z,85
2022-10-14T16:52:50.734Z,85
2022-10-14T16:54:47.918Z,86
2022-10-14T16:56:49.653Z,86
2022-10-14T16:58:49.858Z,85
2022-10-14T17:00:50.542Z,85
2022-10-14T17:02:48.584Z,85
2022-10-14T17:04:50.473Z,85
2022-10-14T17:06:49.113Z,86
2022-10-14T17:08:48.273Z,85
2022-10-14T17:10:50.465Z,85
2022-10-14T17:14:48.247Z,85
2022-10-14T17:16:50.688Z,86
2022-10-14T17:18:50.667Z,85
2022-10-14T17:20:48.721Z,85
2022-10-14T17:24:47.826Z,85
2022-10-14T17:26:49.180Z,85
2022-10-14T17:28:52.346Z,85
2022-10-14T17:30:48.151Z,85
2022-10-14T17:32:49.341Z,85
2022-10-14T17:34:53.218Z,85
2022-10-14T17:36:51.675Z,85
2022-10-14T17:38:49.194Z,85
2022-10-14T17:40:50.458Z,85
2022-10-14T17:42:48.163Z,85
2022-10-14T17:44:50.870Z,85
2022-10-14T17:46:50.689Z,85
2022-10-14T17:48:48.256Z,85
2022-10-14T17:50:53.655Z,85
2022-10-14T17:52:50.622Z,85
2022-10-14T17:54:48.806Z,85
2022-10-14T17:56:48.402Z,85
2022-10-14T17:58:52.055Z,85
2022-10-14T18:00:47.887Z,85
2022-10-14T18:02:47.463Z,85
2022-10-14T18:04:55.373Z,85
2022-10-14T18:08:49.437Z,85
2022-10-14T18:10:50.513Z,85
2022-10-14T18:12:48.282Z,85
2022-10-14T18:14:50.117Z,85
2022-10-14T18:16:50.514Z,85
2022-10-14T18:18:49.371Z,85
2022-10-14T18:20:49.260Z,86
2022-10-14T18:24:48.555Z,85
2022-10-14T18:26:48.198Z,86
2022-10-14T18:28:51.220Z,86
2022-10-14T18:30:53.645Z,86
2022-10-14T18:32:48.913Z,86
2022-10-14T18:36:48.633Z,86
2022-10-14T18:38:49.038Z,86
2022-10-14T18:40:51.532Z,86
2022-10-14T18:42:48.684Z,86
2022-10-14T18:44:49.140Z,86
2022-10-14T18:46:50.263Z,86
2022-10-14T18:48:48.350Z,86
2022-10-14T18:50:47.473Z,86
2022-10-14T18:52:50.822Z,86
2022-10-14T18:54:48.402Z,86
2022-10-14T18:56:50.107Z,86
2022-10-14T19:00:48.390Z,86
2022-10-14T19:02:48.833Z,86
2022-10-14T19:06:50.713Z,86
2022-10-14T19:08:50.501Z,86
2022-10-14T19:10:50.895Z,86
2022-10-14T19:12:49.495Z,86
2022-10-14T19:14:52.598Z,87
2022-10-14T19:16:50.735Z,87
2022-10-14T19:18:48.524Z,86
2022-10-14T19:22:56.419Z,86
2022-10-14T19:24:47.828Z,86
2022-10-14T19:26:49.740Z,86
2022-10-14T19:28:51.381Z,87
2022-10-14T19:30:47.269Z,87
2022-10-14T19:32:48.336Z,87
2022-10-14T19:34:50.585Z,86
2022-10-14T19:36:48.292Z,86
2022-10-14T19:38:47.956Z,87
2022-10-14T19:40:50.635Z,87
2022-10-14T19:42:49.196Z,87
2022-10-14T19:44:50.665Z,86
2022-10-14T19:46:50.460Z,86
2022-10-14T19:48:49.285Z,86
2022-10-14T19:50:49.193Z,86
2022-10-14T19:52:51.521Z,86
2022-10-14T19:54:48.329Z,86
2022-10-14T19:56:49.230Z,86
2022-10-14T20:00:49.137Z,86
2022-10-14T20:02:48.715Z,86
2022-10-14T20:06:48.110Z,86
2022-10-14T20:08:47.473Z,86
2022-10-14T20:10:50.563Z,86
2022-10-14T20:12:49.707Z,86
2022-10-14T20:14:47.034Z,87
2022-10-14T20:16:52.261Z,86
2022-10-14T20:18:50.330Z,86
2022-10-14T20:20:49.617Z,86
2022-10-14T20:24:49.597Z,87
2022-10-14T20:26:49.100Z,87
2022-10-14T20:28:50.676Z,86
2022-10-14T20:30:49.160Z,87
2022-10-14T20:32:50.179Z,86
2022-10-14T20:34:49.682Z,86
2022-10-14T20:36:49.859Z,86
2022-10-14T20:38:47.529Z,86
2022-10-14T20:40:51.681Z,86
2022-10-14T20:42:51.079Z,87
2022-10-14T20:44:50.234Z,87
2022-10-14T20:48:48.784Z,86
2022-10-14T20:50:50.724Z,86
2022-10-14T20:54:46.021Z,87
2022-10-14T20:56:48.416Z,87
2022-10-14T20:58:50.344Z,86
2022-10-14T21:00:48.375Z,86
2022-10-14T21:02:49.920Z,86
2022-10-14T21:04:50.359Z,86
2022-10-14T21:06:48.197Z,86
2022-10-14T21:08:48.538Z,86
2022-10-14T21:10:50.689Z,86
2022-10-14T21:12:50.468Z,86
2022-10-14T21:16:50.749Z,86
2022-10-14T21:18:45.306Z,86
2022-10-14T21:20:47.503Z,86
2022-10-14T21:22:50.726Z,87
2022-10-14T21:24:50.663Z,86
2022-10-14T21:26:51.032Z,86
2022-10-14T21:30:50.680Z,86
2022-10-14T21:32:49.379Z,86
2022-10-14T21:34:50.075Z,87
2022-10-14T21:36:47.664Z,87
2022-10-14T21:38:47.616Z,87
2022-10-14T21:42:47.516Z,87
2022-10-14T21:44:51.603Z,87
2022-10-14T21:46:50.971Z,87
2022-10-14T21:48:47.026Z,88
2022-10-14T21:50:47.541Z,88
2022-10-14T21:52:49.440Z,88
2022-10-14T21:54:48.320Z,88
2022-10-14T21:58:49.127Z,88
2022-10-14T22:00:49.688Z,88
2022-10-14T22:02:53.295Z,88
2022-10-14T22:04:50.376Z,88
2022-10-14T22:06:48.013Z,88
2022-10-14T22:08:50.819Z,88
2022-10-14T22:10:49.247Z,88
2022-10-14T22:12:48.368Z,88
2022-10-14T22:16:51.583Z,88
2022-10-14T22:18:45.643Z,89
2022-10-14T22:20:51.816Z,89
2022-10-14T22:24:47.401Z,89
2022-10-14T22:26:49.671Z,89
2022-10-14T22:28:52.052Z,89
2022-10-14T22:30:51.778Z,89
2022-10-14T22:32:50.531Z,89
2022-10-14T22:34:50.462Z,89
2022-10-14T22:36:49.930Z,89
2022-10-14T22:38:52.034Z,90
2022-10-14T22:40:50.401Z,90
2022-10-14T22:42:49.131Z,89
2022-10-14T22:44:51.447Z,90
2022-10-14T22:46:50.736Z,90
2022-10-14T22:48:50.605Z,90
2022-10-14T22:50:50.437Z,90
2022-10-14T22:52:50.536Z,90
2022-10-14T22:54:50.745Z,90
2022-10-14T22:56:50.405Z,90
2022-10-14T22:58:55.294Z,90
2022-10-14T23:00:50.754Z,90
2022-10-14T23:02:47.973Z,90
2022-10-14T23:04:50.588Z,90
2022-10-14T23:06:50.043Z,90
2022-10-14T23:08:49.246Z,90
2022-10-14T23:10:49.932Z,90
2022-10-14T23:12:51.723Z,90
2022-10-14T23:14:48.294Z,90
2022-10-14T23:16:50.746Z,90
2022-10-14T23:18:47.363Z,90
2022-10-14T23:20:51.076Z,90
2022-10-14T23:24:53.848Z,90
2022-10-14T23:26:54.622Z,91
2022-10-14T23:28:50.790Z,90
2022-10-14T23:30:49.706Z,90
2022-10-14T23:32:50.054Z,90
2022-10-14T23:34:50.842Z,91
2022-10-14T23:36:48.775Z,91
2022-10-14T23:38:50.281Z,91
2022-10-14T23:40:56.762Z,91
2022-10-14T23:42:47.514Z,91
2022-10-14T23:44:49.789Z,91
2022-10-14T23:48:51.560Z,91
2022-10-14T23:50:50.449Z,91
2022-10-14T23:52:50.534Z,91
2022-10-14T23:54:48.525Z,91
2022-10-14T23:56:47.394Z,90
2022-10-14T23:58:50.567Z,90
